createdAt,value
2022-07-31T00:00:24.027Z,16.30
2022-07-31T00:02:51.297Z,16.30
2022-07-31T00:05:18.650Z,16.30
2022-07-31T00:07:45.951Z,16.20
2022-07-31T00:10:13.262Z,16.20
2022-07-31T00:12:40.495Z,16.20
2022-07-31T00:15:10.056Z,16.30
2022-07-31T00:17:40.976Z,16.20
2022-07-31T00:20:09.477Z,16.10
2022-07-31T00:22:36.694Z,16.00
2022-07-31T00:25:04.180Z,16.00
2022-07-31T00:27:31.543Z,15.90
2022-07-31T00:29:58.856Z,16.00
2022-07-31T00:32:26.306Z,16.00
2022-07-31T00:34:53.543Z,16.00
2022-07-31T00:37:20.775Z,16.10
2022-07-31T00:39:49.435Z,16.10
2022-07-31T00:42:18.024Z,16.10
2022-07-31T00:44:47.916Z,16.10
2022-07-31T00:47:16.274Z,16.20
2022-07-31T00:49:44.068Z,16.10
2022-07-31T00:52:11.439Z,16.10
2022-07-31T00:54:39.489Z,16.20
2022-07-31T00:57:07.190Z,16.10
2022-07-31T00:59:34.604Z,16.10
2022-07-31T01:02:02.637Z,16.10
2022-07-31T01:04:31.311Z,16.10
2022-07-31T01:07:01.316Z,16.00
2022-07-31T01:09:29.193Z,16.00
2022-07-31T01:11:59.527Z,16.00
2022-07-31T01:14:29.807Z,15.90
2022-07-31T01:16:57.867Z,15.80
2022-07-31T01:19:46.131Z,15.70
2022-07-31T01:22:47.330Z,15.70
2022-07-31T01:25:30.149Z,15.70
2022-07-31T01:28:47.086Z,15.70
2022-07-31T01:31:26.633Z,15.80
2022-07-31T01:34:05.845Z,15.90
2022-07-31T01:36:35.003Z,15.90
2022-07-31T01:39:03.555Z,15.90
2022-07-31T01:41:34.360Z,15.90
2022-07-31T01:44:01.668Z,16.00
2022-07-31T01:46:29.020Z,16.00
2022-07-31T01:48:56.671Z,16.10
2022-07-31T01:51:25.547Z,16.10
2022-07-31T01:53:52.826Z,16.20
2022-07-31T01:56:20.134Z,16.10
2022-07-31T01:58:47.492Z,16.10
2022-07-31T02:01:27.555Z,16.00
2022-07-31T02:03:56.806Z,16.00
2022-07-31T02:06:24.071Z,16.10
2022-07-31T02:08:52.794Z,16.00
2022-07-31T02:11:20.770Z,16.00
2022-07-31T02:13:48.923Z,16.00
2022-07-31T02:16:17.277Z,15.90
2022-07-31T02:18:46.453Z,15.90
2022-07-31T02:21:20.669Z,15.90
2022-07-31T02:23:47.891Z,15.90
2022-07-31T02:26:15.716Z,15.90
2022-07-31T02:28:43.766Z,15.90
2022-07-31T02:31:12.667Z,15.90
2022-07-31T02:33:40.708Z,16.00
2022-07-31T02:36:08.144Z,16.00
2022-07-31T02:38:35.407Z,16.00
2022-07-31T02:41:04.797Z,16.00
2022-07-31T02:43:33.225Z,16.00
2022-07-31T02:46:06.074Z,16.10
2022-07-31T02:48:33.396Z,16.00
2022-07-31T02:51:04.783Z,16.00
2022-07-31T02:53:32.826Z,16.10
2022-07-31T02:56:04.310Z,16.10
2022-07-31T02:58:33.782Z,16.20
2022-07-31T03:01:02.200Z,16.20
2022-07-31T03:03:31.412Z,16.20
2022-07-31T03:05:58.656Z,16.20
2022-07-31T03:08:26.675Z,16.20
2022-07-31T03:10:56.053Z,16.10
2022-07-31T03:13:27.545Z,16.10
2022-07-31T03:15:55.116Z,16.10
2022-07-31T03:18:22.594Z,16.10
2022-07-31T03:20:53.025Z,16.10
2022-07-31T03:23:21.547Z,16.10
2022-07-31T03:25:54.079Z,16.20
2022-07-31T03:28:22.910Z,16.20
2022-07-31T03:30:56.109Z,16.20
2022-07-31T03:33:26.241Z,16.30
2022-07-31T03:35:53.628Z,16.30
2022-07-31T03:38:39.641Z,16.30
2022-07-31T03:41:09.371Z,16.30
2022-07-31T03:43:47.399Z,16.30
2022-07-31T03:46:18.781Z,16.40
2022-07-31T03:48:47.278Z,16.30
2022-07-31T03:51:14.835Z,16.20
2022-07-31T03:53:42.699Z,16.30
2022-07-31T03:56:15.564Z,16.30
2022-07-31T03:58:42.816Z,16.20
2022-07-31T04:01:16.408Z,16.20
2022-07-31T04:03:48.311Z,16.30
2022-07-31T04:06:28.131Z,16.20
2022-07-31T04:08:56.192Z,16.30
2022-07-31T04:11:23.488Z,16.30
2022-07-31T04:13:50.893Z,16.30
2022-07-31T04:16:18.155Z,16.30
2022-07-31T04:18:47.862Z,16.30
2022-07-31T04:21:18.393Z,16.30
2022-07-31T04:23:49.673Z,16.30
2022-07-31T04:26:40.558Z,16.40
2022-07-31T04:29:08.573Z,16.40
2022-07-31T04:31:36.887Z,16.40
2022-07-31T04:34:06.804Z,16.30
2022-07-31T04:36:34.108Z,16.40
2022-07-31T04:39:02.128Z,16.40
2022-07-31T04:41:30.136Z,16.40
2022-07-31T04:43:57.948Z,16.40
2022-07-31T04:46:26.487Z,16.50
2022-07-31T04:48:55.109Z,16.50
2022-07-31T04:51:23.203Z,16.50
2022-07-31T04:53:50.633Z,16.60
2022-07-31T04:56:42.207Z,16.70
2022-07-31T04:59:11.801Z,16.70
2022-07-31T05:01:41.939Z,16.90
2022-07-31T05:04:10.881Z,17.00
2022-07-31T05:06:45.792Z,17.00
2022-07-31T05:09:18.746Z,17.10
2022-07-31T05:11:47.509Z,17.20
2022-07-31T05:14:16.585Z,17.30
2022-07-31T05:16:44.338Z,17.40
2022-07-31T05:19:13.740Z,17.40
2022-07-31T05:21:52.993Z,17.50
2022-07-31T05:24:33.215Z,17.50
2022-07-31T05:27:09.496Z,17.50
2022-07-31T05:29:36.766Z,17.50
2022-07-31T05:32:04.994Z,17.60
2022-07-31T05:34:34.021Z,17.60
2022-07-31T05:37:01.892Z,17.70
2022-07-31T05:39:31.417Z,17.70
2022-07-31T05:42:17.183Z,17.90
2022-07-31T05:45:03.086Z,18.00
2022-07-31T05:47:40.122Z,18.10
2022-07-31T05:50:09.386Z,18.10
2022-07-31T05:52:36.688Z,18.30
2022-07-31T05:55:24.946Z,18.30
2022-07-31T05:57:55.024Z,18.40
2022-07-31T06:00:22.434Z,18.50
2022-07-31T06:02:49.804Z,18.60
2022-07-31T06:05:40.660Z,18.60
2022-07-31T06:08:09.575Z,18.60
2022-07-31T06:10:41.284Z,18.70
2022-07-31T06:13:08.543Z,18.70
2022-07-31T06:15:36.689Z,18.90
2022-07-31T06:18:04.603Z,18.80
2022-07-31T06:20:32.174Z,18.80
2022-07-31T06:22:59.871Z,18.80
2022-07-31T06:25:38.818Z,18.90
2022-07-31T06:28:07.135Z,19.00
2022-07-31T06:30:38.038Z,19.10
2022-07-31T06:33:08.453Z,19.10
2022-07-31T06:35:37.211Z,19.10
2022-07-31T06:38:24.463Z,19.20
2022-07-31T06:41:45.143Z,19.40
2022-07-31T06:44:31.227Z,19.40
2022-07-31T06:47:17.844Z,19.30
2022-07-31T06:49:57.152Z,19.40
2022-07-31T06:52:28.728Z,19.30
2022-07-31T06:54:56.387Z,19.30
2022-07-31T06:57:23.720Z,19.30
2022-07-31T06:59:50.960Z,19.40
2022-07-31T07:02:18.753Z,19.50
2022-07-31T07:05:01.503Z,19.60
2022-07-31T07:07:35.453Z,19.70
2022-07-31T07:10:04.553Z,19.70
2022-07-31T07:12:50.395Z,19.70
2022-07-31T07:15:18.765Z,19.70
2022-07-31T07:17:46.269Z,19.60
2022-07-31T07:20:18.033Z,19.60
2022-07-31T07:22:45.318Z,19.60
2022-07-31T07:25:17.229Z,19.60
2022-07-31T07:27:44.508Z,19.60
2022-07-31T07:30:11.896Z,19.50
2022-07-31T07:32:39.348Z,19.70
2022-07-31T07:35:09.155Z,19.80
2022-07-31T07:37:49.389Z,19.80
2022-07-31T07:40:19.651Z,19.90
2022-07-31T07:42:46.932Z,20.00
2022-07-31T07:45:15.072Z,20.00
2022-07-31T07:48:05.598Z,20.00
2022-07-31T07:50:35.012Z,20.10
2022-07-31T07:53:25.734Z,20.20
2022-07-31T07:56:22.180Z,20.20
2022-07-31T07:59:18.787Z,20.40
2022-07-31T08:02:04.426Z,20.50
2022-07-31T08:04:33.442Z,20.50
2022-07-31T08:07:00.695Z,20.50
2022-07-31T08:09:34.223Z,20.60
2022-07-31T08:12:20.055Z,20.60
2022-07-31T08:15:10.229Z,20.80
2022-07-31T08:18:06.060Z,20.90
2022-07-31T08:20:33.314Z,20.90
2022-07-31T08:23:00.576Z,21.00
2022-07-31T08:25:32.042Z,21.00
2022-07-31T08:27:59.871Z,21.00
2022-07-31T08:30:30.817Z,21.20
2022-07-31T08:32:58.923Z,21.20
2022-07-31T08:35:39.659Z,21.30
2022-07-31T08:38:12.657Z,21.60
2022-07-31T08:40:47.386Z,21.70
2022-07-31T08:44:00.314Z,21.90
2022-07-31T08:46:02.961Z,22.00
2022-07-31T08:48:34.711Z,22.20
2022-07-31T08:51:03.537Z,22.30
2022-07-31T08:53:56.502Z,22.40
2022-07-31T08:56:24.354Z,22.50
2022-07-31T08:58:51.773Z,22.50
2022-07-31T09:01:21.386Z,22.50
2022-07-31T09:03:49.214Z,22.80
2022-07-31T09:06:16.672Z,22.90
2022-07-31T09:08:43.952Z,22.80
2022-07-31T09:11:12.717Z,22.90
2022-07-31T09:14:02.790Z,22.90
2022-07-31T09:16:47.625Z,23.00
2022-07-31T09:19:52.651Z,23.20
2022-07-31T09:22:24.299Z,23.30
2022-07-31T09:24:52.078Z,23.40
2022-07-31T09:27:20.086Z,23.70
2022-07-31T09:29:49.524Z,24.00
2022-07-31T09:32:32.243Z,23.90
2022-07-31T09:35:19.700Z,24.10
2022-07-31T09:37:47.159Z,24.10
2022-07-31T09:40:35.297Z,24.10
2022-07-31T09:43:17.232Z,24.40
2022-07-31T09:45:48.173Z,24.40
2022-07-31T09:48:26.898Z,24.30
2022-07-31T09:51:04.278Z,24.50
2022-07-31T09:53:53.284Z,24.60
2022-07-31T09:56:50.350Z,24.60
2022-07-31T09:59:17.852Z,24.60
2022-07-31T10:01:48.582Z,24.60
2022-07-31T10:04:19.970Z,24.60
2022-07-31T10:06:47.825Z,24.50
2022-07-31T10:09:15.258Z,24.60
2022-07-31T10:11:55.755Z,24.70
2022-07-31T10:14:27.085Z,24.80
2022-07-31T10:16:56.069Z,24.90
2022-07-31T10:19:42.559Z,25.00
2022-07-31T10:22:43.771Z,25.00
2022-07-31T10:25:17.717Z,25.00
2022-07-31T10:27:45.020Z,25.00
2022-07-31T10:30:13.955Z,25.10
2022-07-31T10:32:45.536Z,25.10
2022-07-31T10:35:43.524Z,25.10
2022-07-31T10:39:02.421Z,25.20
2022-07-31T10:42:33.586Z,25.30
2022-07-31T10:45:06.753Z,25.40
2022-07-31T10:47:52.995Z,25.50
2022-07-31T10:50:31.407Z,25.60
2022-07-31T10:53:17.711Z,25.70
2022-07-31T10:56:10.863Z,25.70
2022-07-31T10:58:55.850Z,25.90
2022-07-31T11:01:54.280Z,26.00
2022-07-31T11:04:45.423Z,26.10
2022-07-31T11:07:16.169Z,26.00
2022-07-31T11:10:11.778Z,25.80
2022-07-31T11:13:05.073Z,25.60
2022-07-31T11:15:47.053Z,25.80
2022-07-31T11:18:50.517Z,25.70
2022-07-31T11:21:37.479Z,25.60
2022-07-31T11:24:34.431Z,25.60
2022-07-31T11:27:01.869Z,25.60
2022-07-31T11:30:01.488Z,25.60
2022-07-31T11:32:22.925Z,25.60
2022-07-31T11:34:56.982Z,25.60
2022-07-31T11:37:24.901Z,25.60
2022-07-31T11:39:52.987Z,26.00
2022-07-31T11:42:26.347Z,26.30
2022-07-31T11:45:11.020Z,26.20
2022-07-31T11:48:11.096Z,26.20
2022-07-31T11:50:40.418Z,26.30
2022-07-31T11:53:07.673Z,26.50
2022-07-31T11:55:54.409Z,26.40
2022-07-31T11:58:22.545Z,26.30
2022-07-31T12:00:52.997Z,26.20
2022-07-31T12:03:22.954Z,26.10
2022-07-31T12:05:52.453Z,26.10
2022-07-31T12:08:20.339Z,26.00
2022-07-31T12:10:47.922Z,26.00
2022-07-31T12:13:16.940Z,26.20
2022-07-31T12:15:54.204Z,26.20
2022-07-31T12:18:21.465Z,26.10
2022-07-31T12:20:59.054Z,26.10
2022-07-31T12:23:40.386Z,26.20
2022-07-31T12:26:10.681Z,26.30
2022-07-31T12:28:37.974Z,26.50
2022-07-31T12:31:05.415Z,26.70
2022-07-31T12:33:42.839Z,26.50
2022-07-31T12:36:14.442Z,26.40
2022-07-31T12:38:44.980Z,26.50
2022-07-31T12:41:13.630Z,26.40
2022-07-31T12:43:51.988Z,26.50
2022-07-31T12:46:34.617Z,26.20
2022-07-31T12:49:02.146Z,26.20
2022-07-31T12:51:45.330Z,26.20
2022-07-31T12:54:17.399Z,26.30
2022-07-31T12:56:45.162Z,26.20
2022-07-31T12:59:12.549Z,26.10
2022-07-31T13:01:39.986Z,26.20
2022-07-31T13:04:18.389Z,26.40
2022-07-31T13:06:48.819Z,26.70
2022-07-31T13:09:16.396Z,26.80
2022-07-31T13:11:46.258Z,27.10
2022-07-31T13:14:18.871Z,27.20
2022-07-31T13:16:46.293Z,27.30
2022-07-31T13:19:13.995Z,27.60
2022-07-31T13:21:49.635Z,27.50
2022-07-31T13:24:20.740Z,27.80
2022-07-31T13:26:48.855Z,27.90
2022-07-31T13:29:16.487Z,28.10
2022-07-31T13:31:44.076Z,28.20
2022-07-31T13:34:11.301Z,28.30
2022-07-31T13:36:39.385Z,28.10
2022-07-31T13:39:10.677Z,27.90
2022-07-31T13:41:39.151Z,27.80
2022-07-31T13:44:07.051Z,27.50
2022-07-31T13:46:34.394Z,27.50
2022-07-31T13:49:01.859Z,27.10
2022-07-31T13:51:30.163Z,26.90
2022-07-31T13:53:57.485Z,26.90
2022-07-31T13:56:39.491Z,27.20
2022-07-31T13:59:11.927Z,27.30
2022-07-31T14:02:04.616Z,27.50
2022-07-31T14:04:31.282Z,27.80
2022-07-31T14:07:01.046Z,27.70
2022-07-31T14:09:28.526Z,27.60
2022-07-31T14:11:56.872Z,27.30
2022-07-31T14:14:24.232Z,27.40
2022-07-31T14:16:51.481Z,27.50
2022-07-31T14:19:18.803Z,27.60
2022-07-31T14:21:56.402Z,27.60
2022-07-31T14:24:26.511Z,27.60
2022-07-31T14:26:53.731Z,27.60
2022-07-31T14:29:21.042Z,27.50
2022-07-31T14:31:48.321Z,27.40
2022-07-31T14:34:15.557Z,27.40
2022-07-31T14:36:42.784Z,27.30
2022-07-31T14:39:10.088Z,27.40
2022-07-31T14:41:37.333Z,27.70
2022-07-31T14:44:04.728Z,27.90
2022-07-31T14:46:31.992Z,27.90
2022-07-31T14:49:01.480Z,27.80
2022-07-31T14:51:29.162Z,28.10
2022-07-31T14:53:56.477Z,27.80
2022-07-31T14:56:51.457Z,27.50
2022-07-31T14:59:10.962Z,27.30
2022-07-31T15:01:38.280Z,27.00
2022-07-31T15:04:06.508Z,26.80
2022-07-31T15:06:51.334Z,26.70
2022-07-31T15:09:21.188Z,26.70
2022-07-31T15:12:00.707Z,26.50
2022-07-31T15:14:29.889Z,26.70
2022-07-31T15:16:57.439Z,26.70
2022-07-31T15:19:24.692Z,26.60
2022-07-31T15:22:11.185Z,26.70
2022-07-31T15:24:42.473Z,26.60
2022-07-31T15:27:12.962Z,26.60
2022-07-31T15:30:04.709Z,26.60
2022-07-31T15:32:27.490Z,26.80
2022-07-31T15:34:54.788Z,27.00
2022-07-31T15:37:22.025Z,27.00
2022-07-31T15:40:02.823Z,26.80
2022-07-31T15:42:40.244Z,26.70
2022-07-31T15:45:09.449Z,26.70
2022-07-31T15:47:36.752Z,26.60
2022-07-31T15:50:04.456Z,26.60
2022-07-31T15:52:31.718Z,26.50
2022-07-31T15:54:58.947Z,26.50
2022-07-31T15:57:26.199Z,26.70
2022-07-31T15:59:56.323Z,26.70
2022-07-31T16:02:23.896Z,26.70
2022-07-31T16:04:54.312Z,26.70
2022-07-31T16:08:31.203Z,26.80
2022-07-31T16:10:16.569Z,26.80
2022-07-31T16:12:45.930Z,26.80
2022-07-31T16:15:13.574Z,26.70
2022-07-31T16:17:41.096Z,26.50
2022-07-31T16:20:10.287Z,26.40
2022-07-31T16:22:38.078Z,26.30
2022-07-31T16:25:05.996Z,26.40
2022-07-31T16:27:33.253Z,26.40
2022-07-31T16:30:01.951Z,26.40
2022-07-31T16:32:29.960Z,26.30
2022-07-31T16:35:00.951Z,26.30
2022-07-31T16:37:50.252Z,26.40
2022-07-31T16:40:28.854Z,26.30
2022-07-31T16:43:47.992Z,26.30
2022-07-31T16:45:52.993Z,26.30
2022-07-31T16:48:20.297Z,26.50
2022-07-31T16:50:53.080Z,26.70
2022-07-31T16:54:13.590Z,26.80
2022-07-31T16:56:11.192Z,26.90
2022-07-31T16:58:38.406Z,27.00
2022-07-31T17:01:06.367Z,26.90
2022-07-31T17:04:00.477Z,26.90
2022-07-31T17:06:36.218Z,26.70
2022-07-31T17:09:17.018Z,26.50
2022-07-31T17:11:50.119Z,26.30
2022-07-31T17:14:18.280Z,26.10
2022-07-31T17:16:47.884Z,26.10
2022-07-31T17:19:36.026Z,26.00
2022-07-31T17:22:04.782Z,25.90
2022-07-31T17:24:32.136Z,25.80
2022-07-31T17:26:59.719Z,25.70
2022-07-31T17:29:26.980Z,25.70
2022-07-31T17:31:54.198Z,25.60
2022-07-31T17:34:21.469Z,25.60
2022-07-31T17:36:50.118Z,25.60
2022-07-31T17:39:17.447Z,25.50
2022-07-31T17:41:44.741Z,25.50
2022-07-31T17:44:12.052Z,25.50
2022-07-31T17:46:48.371Z,25.50
2022-07-31T17:49:20.262Z,25.50
2022-07-31T17:51:57.724Z,25.40
2022-07-31T17:54:27.644Z,25.40
2022-07-31T17:56:55.113Z,25.30
2022-07-31T17:59:23.088Z,25.30
2022-07-31T18:01:52.275Z,25.30
2022-07-31T18:04:21.052Z,25.20
2022-07-31T18:06:54.397Z,25.20
2022-07-31T18:09:23.463Z,25.10
2022-07-31T18:11:51.672Z,25.00
2022-07-31T18:14:18.972Z,25.00
2022-07-31T18:16:46.459Z,25.00
2022-07-31T18:19:13.951Z,24.90
2022-07-31T18:21:41.239Z,24.90
2022-07-31T18:24:08.541Z,24.80
2022-07-31T18:26:36.055Z,24.80
2022-07-31T18:29:03.482Z,24.90
2022-07-31T18:31:34.208Z,24.80
2022-07-31T18:34:05.508Z,24.70
2022-07-31T18:36:33.346Z,24.70
2022-07-31T18:39:00.823Z,24.60
2022-07-31T18:41:28.142Z,24.60
2022-07-31T18:43:55.469Z,24.60
2022-07-31T18:46:24.587Z,24.50
2022-07-31T18:48:56.255Z,24.50
2022-07-31T18:51:24.968Z,24.40
2022-07-31T18:53:54.688Z,24.40
2022-07-31T18:56:23.418Z,24.30
2022-07-31T18:58:51.376Z,24.20
2022-07-31T19:01:18.660Z,24.20
2022-07-31T19:03:46.606Z,24.10
2022-07-31T19:06:13.915Z,24.10
2022-07-31T19:08:41.191Z,24.00
2022-07-31T19:11:08.467Z,24.00
2022-07-31T19:13:35.715Z,23.90
2022-07-31T19:16:04.287Z,23.80
2022-07-31T19:18:33.185Z,23.70
2022-07-31T19:21:17.723Z,23.70
2022-07-31T19:23:48.643Z,23.70
2022-07-31T19:26:15.863Z,23.60
2022-07-31T19:28:43.353Z,23.60
2022-07-31T19:31:11.504Z,23.60
2022-07-31T19:33:39.162Z,23.60
2022-07-31T19:36:06.856Z,23.50
2022-07-31T19:38:35.763Z,23.40
2022-07-31T19:41:03.214Z,23.40
2022-07-31T19:43:30.591Z,23.30
2022-07-31T19:46:11.285Z,23.20
2022-07-31T19:48:43.832Z,23.20
2022-07-31T19:51:12.166Z,23.20
2022-07-31T19:53:39.577Z,23.20
2022-07-31T19:56:07.066Z,23.20
2022-07-31T19:58:35.269Z,23.20
2022-07-31T20:01:05.874Z,23.10
2022-07-31T20:03:33.434Z,23.10
2022-07-31T20:06:04.070Z,23.10
2022-07-31T20:08:33.631Z,23.10
2022-07-31T20:11:03.325Z,23.00
2022-07-31T20:13:32.268Z,22.90
2022-07-31T20:15:59.536Z,22.80
2022-07-31T20:18:28.553Z,22.80
2022-07-31T20:20:57.322Z,22.80
2022-07-31T20:23:25.583Z,22.80
2022-07-31T20:25:52.968Z,22.80
2022-07-31T20:28:20.354Z,22.80
2022-07-31T20:30:47.586Z,22.70
2022-07-31T20:33:14.928Z,22.80
2022-07-31T20:35:49.121Z,22.80
2022-07-31T20:38:20.746Z,22.80
2022-07-31T20:40:54.207Z,22.70
2022-07-31T20:43:23.804Z,22.70
2022-07-31T20:45:51.375Z,22.70
2022-07-31T20:48:18.755Z,22.60
2022-07-31T20:50:47.758Z,22.60
2022-07-31T20:53:19.388Z,22.60
2022-07-31T20:55:49.210Z,22.60
2022-07-31T20:58:18.100Z,22.60
2022-07-31T21:00:47.130Z,22.60
2022-07-31T21:03:14.837Z,22.60
2022-07-31T21:05:42.264Z,22.60
2022-07-31T21:08:10.593Z,22.50
2022-07-31T21:10:37.986Z,22.50
2022-07-31T21:13:05.293Z,22.60
2022-07-31T21:15:42.143Z,22.60
2022-07-31T21:18:15.774Z,22.60
2022-07-31T21:20:52.442Z,22.50
2022-07-31T21:23:21.916Z,22.50
2022-07-31T21:25:49.407Z,22.50
2022-07-31T21:28:16.960Z,22.40
2022-07-31T21:30:44.436Z,22.40
2022-07-31T21:33:11.777Z,22.40
2022-07-31T21:35:40.065Z,22.30
2022-07-31T21:38:10.245Z,22.30
2022-07-31T21:40:39.167Z,22.30
2022-07-31T21:43:06.766Z,22.30
2022-07-31T21:45:51.096Z,22.20
2022-07-31T21:48:21.600Z,22.20
2022-07-31T21:50:48.946Z,22.20
2022-07-31T21:53:16.267Z,22.10
2022-07-31T21:55:43.881Z,22.10
2022-07-31T21:58:11.225Z,22.00
2022-07-31T22:00:38.508Z,22.10
2022-07-31T22:03:05.841Z,22.00
2022-07-31T22:05:52.092Z,22.00
2022-07-31T22:08:19.614Z,21.90
2022-07-31T22:10:47.119Z,22.00
2022-07-31T22:13:14.380Z,21.90
2022-07-31T22:15:58.573Z,21.90
2022-07-31T22:18:29.559Z,21.80
2022-07-31T22:20:57.703Z,21.80
2022-07-31T22:23:26.245Z,21.80
2022-07-31T22:25:53.676Z,21.80
2022-07-31T22:28:21.527Z,21.70
2022-07-31T22:30:49.259Z,21.70
2022-07-31T22:33:16.603Z,21.70
2022-07-31T22:35:43.926Z,21.70
2022-07-31T22:38:11.597Z,21.70
2022-07-31T22:40:39.028Z,21.70
2022-07-31T22:44:05.525Z,21.80
2022-07-31T22:45:54.392Z,21.80
2022-07-31T22:48:22.579Z,21.80
2022-07-31T22:50:49.861Z,21.80
2022-07-31T22:53:17.542Z,21.80
2022-07-31T22:55:44.742Z,21.80
2022-07-31T22:58:14.974Z,21.80
2022-07-31T23:00:42.440Z,21.90
2022-07-31T23:03:09.685Z,21.90
2022-07-31T23:06:28.213Z,21.80
2022-07-31T23:08:24.168Z,21.80
2022-07-31T23:10:51.390Z,21.80
2022-07-31T23:13:18.638Z,21.80
2022-07-31T23:15:46.327Z,21.70
2022-07-31T23:18:13.552Z,21.70
2022-07-31T23:20:40.831Z,21.70
2022-07-31T23:23:08.052Z,21.70
2022-07-31T23:25:35.380Z,21.60
2022-07-31T23:28:02.615Z,21.60
2022-07-31T23:30:29.865Z,21.70
2022-07-31T23:32:57.116Z,21.70
2022-07-31T23:35:24.456Z,21.70
2022-07-31T23:37:51.747Z,21.60
2022-07-31T23:40:18.994Z,21.60
2022-07-31T23:42:46.221Z,21.60
2022-07-31T23:45:16.103Z,21.60
2022-07-31T23:47:45.970Z,21.60
2022-07-31T23:50:14.882Z,21.60
2022-07-31T23:52:42.827Z,21.50
2022-07-31T23:55:10.062Z,21.50
2022-07-31T23:57:37.295Z,21.40
